sensor_id;sensor_type;location;lat;lon;timestamp;P1;durP1;ratioP1;P2;durP2;ratioP2
20318;SDS011;10317;47.254;11.314;2022-12-20T00:01:15;34.63;;;20.15;;
20318;SDS011;10317;47.254;11.314;2022-12-20T00:03:42;35.35;;;19.35;;
20318;SDS011;10317;47.254;11.314;2022-12-20T00:06:09;32.63;;;18.92;;
20318;SDS011;10317;47.254;11.314;2022-12-20T00:08:36;30.40;;;18.45;;
20318;SDS011;10317;47.254;11.314;2022-12-20T00:11:03;36.85;;;20.35;;
20318;SDS011;10317;47.254;11.314;2022-12-20T00:13:30;37.28;;;20.50;;
20318;SDS011;10317;47.254;11.314;2022-12-20T00:18:42;31.92;;;19.75;;
20318;SDS011;10317;47.254;11.314;2022-12-20T00:21:10;32.25;;;19.60;;
20318;SDS011;10317;47.254;11.314;2022-12-20T00:23:37;34.15;;;18.92;;
20318;SDS011;10317;47.254;11.314;2022-12-20T00:26:04;30.20;;;17.20;;
20318;SDS011;10317;47.254;11.314;2022-12-20T00:28:38;33.80;;;18.30;;
20318;SDS011;10317;47.254;11.314;2022-12-20T00:31:06;29.80;;;18.13;;
20318;SDS011;10317;47.254;11.314;2022-12-20T00:33:33;28.48;;;17.33;;
20318;SDS011;10317;47.254;11.314;2022-12-20T00:36:01;30.48;;;17.50;;
20318;SDS011;10317;47.254;11.314;2022-12-20T00:38:28;30.88;;;17.88;;
20318;SDS011;10317;47.254;11.314;2022-12-20T00:43:33;25.27;;;15.88;;
20318;SDS011;10317;47.254;11.314;2022-12-20T00:45:59;27.00;;;16.63;;
20318;SDS011;10317;47.254;11.314;2022-12-20T00:48:25;26.38;;;17.48;;
20318;SDS011;10317;47.254;11.314;2022-12-20T00:50:56;26.95;;;16.58;;
20318;SDS011;10317;47.254;11.314;2022-12-20T00:53:23;28.83;;;16.98;;
20318;SDS011;10317;47.254;11.314;2022-12-20T00:55:48;29.20;;;18.40;;
20318;SDS011;10317;47.254;11.314;2022-12-20T00:58:14;27.92;;;18.25;;
20318;SDS011;10317;47.254;11.314;2022-12-20T01:00:39;27.17;;;16.92;;
20318;SDS011;10317;47.254;11.314;2022-12-20T01:03:05;27.17;;;18.35;;
20318;SDS011;10317;47.254;11.314;2022-12-20T01:05:31;26.00;;;16.85;;
20318;SDS011;10317;47.254;11.314;2022-12-20T01:07:57;26.33;;;17.20;;
20318;SDS011;10317;47.254;11.314;2022-12-20T01:10:23;22.20;;;15.32;;
20318;SDS011;10317;47.254;11.314;2022-12-20T01:12:48;25.73;;;16.95;;
20318;SDS011;10317;47.254;11.314;2022-12-20T01:15:14;26.80;;;18.27;;
20318;SDS011;10317;47.254;11.314;2022-12-20T01:17:40;24.98;;;15.82;;
20318;SDS011;10317;47.254;11.314;2022-12-20T01:20:06;24.15;;;15.48;;
20318;SDS011;10317;47.254;11.314;2022-12-20T01:22:32;27.10;;;16.85;;
20318;SDS011;10317;47.254;11.314;2022-12-20T01:24:58;24.92;;;15.75;;
20318;SDS011;10317;47.254;11.314;2022-12-20T01:27:24;27.17;;;16.13;;
20318;SDS011;10317;47.254;11.314;2022-12-20T01:29:50;27.02;;;16.30;;
20318;SDS011;10317;47.254;11.314;2022-12-20T01:32:15;23.48;;;15.82;;
20318;SDS011;10317;47.254;11.314;2022-12-20T01:34:41;22.00;;;15.75;;
20318;SDS011;10317;47.254;11.314;2022-12-20T01:37:07;23.65;;;15.27;;
20318;SDS011;10317;47.254;11.314;2022-12-20T01:39:32;22.88;;;14.80;;
20318;SDS011;10317;47.254;11.314;2022-12-20T01:41:58;26.05;;;15.73;;
20318;SDS011;10317;47.254;11.314;2022-12-20T01:46:50;28.90;;;18.40;;
20318;SDS011;10317;47.254;11.314;2022-12-20T01:49:33;25.73;;;16.77;;
20318;SDS011;10317;47.254;11.314;2022-12-20T01:54:40;27.17;;;15.82;;
20318;SDS011;10317;47.254;11.314;2022-12-20T01:57:15;21.33;;;14.82;;
20318;SDS011;10317;47.254;11.314;2022-12-20T01:59:45;25.02;;;15.30;;
20318;SDS011;10317;47.254;11.314;2022-12-20T02:02:12;23.60;;;15.50;;
20318;SDS011;10317;47.254;11.314;2022-12-20T02:04:38;25.52;;;16.58;;
20318;SDS011;10317;47.254;11.314;2022-12-20T02:07:04;22.60;;;15.20;;
20318;SDS011;10317;47.254;11.314;2022-12-20T02:09:32;25.33;;;14.55;;
20318;SDS011;10317;47.254;11.314;2022-12-20T02:12:09;21.48;;;13.82;;
20318;SDS011;10317;47.254;11.314;2022-12-20T02:14:45;27.95;;;17.33;;
20318;SDS011;10317;47.254;11.314;2022-12-20T02:18:37;24.38;;;16.02;;
20318;SDS011;10317;47.254;11.314;2022-12-20T02:20:57;23.85;;;16.15;;
20318;SDS011;10317;47.254;11.314;2022-12-20T02:32:07;24.38;;;15.77;;
20318;SDS011;10317;47.254;11.314;2022-12-20T02:34:52;23.00;;;16.08;;
20318;SDS011;10317;47.254;11.314;2022-12-20T02:37:18;22.92;;;15.07;;
20318;SDS011;10317;47.254;11.314;2022-12-20T02:39:44;22.92;;;15.57;;
20318;SDS011;10317;47.254;11.314;2022-12-20T02:42:11;20.90;;;14.10;;
20318;SDS011;10317;47.254;11.314;2022-12-20T02:44:42;26.75;;;16.65;;
20318;SDS011;10317;47.254;11.314;2022-12-20T02:47:45;25.35;;;15.52;;
20318;SDS011;10317;47.254;11.314;2022-12-20T02:50:30;26.30;;;16.88;;
20318;SDS011;10317;47.254;11.314;2022-12-20T02:53:00;30.48;;;17.23;;
20318;SDS011;10317;47.254;11.314;2022-12-20T02:55:32;30.02;;;17.27;;
20318;SDS011;10317;47.254;11.314;2022-12-20T02:58:12;25.08;;;17.00;;
20318;SDS011;10317;47.254;11.314;2022-12-20T03:01:08;31.00;;;19.45;;
20318;SDS011;10317;47.254;11.314;2022-12-20T03:03:37;30.75;;;18.00;;
20318;SDS011;10317;47.254;11.314;2022-12-20T03:06:03;34.42;;;17.48;;
20318;SDS011;10317;47.254;11.314;2022-12-20T03:08:29;25.75;;;17.75;;
20318;SDS011;10317;47.254;11.314;2022-12-20T03:10:56;29.90;;;18.05;;
20318;SDS011;10317;47.254;11.314;2022-12-20T03:13:22;29.45;;;17.20;;
20318;SDS011;10317;47.254;11.314;2022-12-20T03:15:49;28.27;;;16.98;;
20318;SDS011;10317;47.254;11.314;2022-12-20T03:18:14;28.80;;;17.85;;
20318;SDS011;10317;47.254;11.314;2022-12-20T03:20:40;28.35;;;17.80;;
20318;SDS011;10317;47.254;11.314;2022-12-20T03:23:06;32.05;;;20.02;;
20318;SDS011;10317;47.254;11.314;2022-12-20T03:25:32;32.08;;;18.30;;
20318;SDS011;10317;47.254;11.314;2022-12-20T03:27:58;27.52;;;18.65;;
20318;SDS011;10317;47.254;11.314;2022-12-20T03:30:24;28.25;;;18.02;;
20318;SDS011;10317;47.254;11.314;2022-12-20T03:32:49;30.52;;;18.60;;
20318;SDS011;10317;47.254;11.314;2022-12-20T03:35:15;30.35;;;17.40;;
20318;SDS011;10317;47.254;11.314;2022-12-20T03:37:41;29.35;;;18.67;;
20318;SDS011;10317;47.254;11.314;2022-12-20T03:40:07;29.25;;;17.48;;
20318;SDS011;10317;47.254;11.314;2022-12-20T03:42:33;56.38;;;23.10;;
20318;SDS011;10317;47.254;11.314;2022-12-20T03:44:59;29.40;;;19.10;;
20318;SDS011;10317;47.254;11.314;2022-12-20T03:47:25;29.80;;;17.58;;
20318;SDS011;10317;47.254;11.314;2022-12-20T03:49:51;29.77;;;18.25;;
20318;SDS011;10317;47.254;11.314;2022-12-20T03:52:16;40.03;;;21.10;;
20318;SDS011;10317;47.254;11.314;2022-12-20T03:54:42;34.33;;;19.73;;
20318;SDS011;10317;47.254;11.314;2022-12-20T03:57:08;30.38;;;19.00;;
20318;SDS011;10317;47.254;11.314;2022-12-20T03:59:33;31.50;;;18.88;;
20318;SDS011;10317;47.254;11.314;2022-12-20T04:02:00;26.20;;;17.27;;
20318;SDS011;10317;47.254;11.314;2022-12-20T04:04:26;32.50;;;18.95;;
20318;SDS011;10317;47.254;11.314;2022-12-20T04:06:52;38.28;;;19.10;;
20318;SDS011;10317;47.254;11.314;2022-12-20T04:09:17;34.80;;;18.95;;
20318;SDS011;10317;47.254;11.314;2022-12-20T04:11:43;30.40;;;18.75;;
20318;SDS011;10317;47.254;11.314;2022-12-20T04:14:09;33.22;;;18.30;;
20318;SDS011;10317;47.254;11.314;2022-12-20T04:16:34;30.80;;;18.00;;
20318;SDS011;10317;47.254;11.314;2022-12-20T04:19:00;32.05;;;17.83;;
20318;SDS011;10317;47.254;11.314;2022-12-20T04:21:30;31.13;;;17.50;;
20318;SDS011;10317;47.254;11.314;2022-12-20T04:23:58;31.83;;;18.50;;
20318;SDS011;10317;47.254;11.314;2022-12-20T04:26:25;36.22;;;19.30;;
20318;SDS011;10317;47.254;11.314;2022-12-20T04:28:51;31.05;;;17.17;;
20318;SDS011;10317;47.254;11.314;2022-12-20T04:31:17;28.65;;;17.30;;
20318;SDS011;10317;47.254;11.314;2022-12-20T04:33:43;29.30;;;17.08;;
20318;SDS011;10317;47.254;11.314;2022-12-20T04:36:09;27.45;;;15.73;;
20318;SDS011;10317;47.254;11.314;2022-12-20T04:38:35;28.92;;;17.33;;
20318;SDS011;10317;47.254;11.314;2022-12-20T04:41:01;21.88;;;15.57;;
20318;SDS011;10317;47.254;11.314;2022-12-20T04:43:26;28.70;;;16.65;;
20318;SDS011;10317;47.254;11.314;2022-12-20T04:45:53;29.35;;;15.68;;
20318;SDS011;10317;47.254;11.314;2022-12-20T04:48:20;25.15;;;16.65;;
20318;SDS011;10317;47.254;11.314;2022-12-20T04:50:48;27.13;;;16.95;;
20318;SDS011;10317;47.254;11.314;2022-12-20T04:53:15;26.23;;;16.33;;
20318;SDS011;10317;47.254;11.314;2022-12-20T04:55:59;26.25;;;17.02;;
20318;SDS011;10317;47.254;11.314;2022-12-20T04:58:25;26.48;;;16.38;;
20318;SDS011;10317;47.254;11.314;2022-12-20T05:00:51;25.55;;;15.77;;
20318;SDS011;10317;47.254;11.314;2022-12-20T05:03:18;28.25;;;16.88;;
20318;SDS011;10317;47.254;11.314;2022-12-20T05:05:44;25.73;;;16.50;;
20318;SDS011;10317;47.254;11.314;2022-12-20T05:08:09;26.40;;;16.23;;
20318;SDS011;10317;47.254;11.314;2022-12-20T05:10:35;31.00;;;18.50;;
20318;SDS011;10317;47.254;11.314;2022-12-20T05:13:01;24.67;;;16.42;;
20318;SDS011;10317;47.254;11.314;2022-12-20T05:15:27;25.20;;;15.70;;
20318;SDS011;10317;47.254;11.314;2022-12-20T05:17:53;27.30;;;17.05;;
20318;SDS011;10317;47.254;11.314;2022-12-20T05:20:24;21.85;;;15.15;;
20318;SDS011;10317;47.254;11.314;2022-12-20T05:22:56;22.38;;;15.20;;
20318;SDS011;10317;47.254;11.314;2022-12-20T05:25:41;26.02;;;15.93;;
20318;SDS011;10317;47.254;11.314;2022-12-20T05:28:31;21.10;;;14.88;;
20318;SDS011;10317;47.254;11.314;2022-12-20T05:30:57;21.17;;;15.05;;
20318;SDS011;10317;47.254;11.314;2022-12-20T05:33:24;27.55;;;16.90;;
20318;SDS011;10317;47.254;11.314;2022-12-20T05:35:50;25.60;;;17.95;;
20318;SDS011;10317;47.254;11.314;2022-12-20T05:38:15;26.58;;;16.60;;
20318;SDS011;10317;47.254;11.314;2022-12-20T05:40:41;18.75;;;15.00;;
20318;SDS011;10317;47.254;11.314;2022-12-20T05:43:07;21.08;;;14.45;;
20318;SDS011;10317;47.254;11.314;2022-12-20T05:45:33;24.33;;;14.80;;
20318;SDS011;10317;47.254;11.314;2022-12-20T05:47:59;18.70;;;13.38;;
20318;SDS011;10317;47.254;11.314;2022-12-20T05:50:25;20.38;;;13.65;;
20318;SDS011;10317;47.254;11.314;2022-12-20T05:52:51;23.40;;;14.95;;
20318;SDS011;10317;47.254;11.314;2022-12-20T05:55:16;21.25;;;14.68;;
20318;SDS011;10317;47.254;11.314;2022-12-20T05:57:42;21.92;;;14.00;;
20318;SDS011;10317;47.254;11.314;2022-12-20T06:00:08;21.52;;;15.32;;
20318;SDS011;10317;47.254;11.314;2022-12-20T06:02:34;43.90;;;27.80;;
20318;SDS011;10317;47.254;11.314;2022-12-20T06:05:00;34.00;;;23.13;;
20318;SDS011;10317;47.254;11.314;2022-12-20T06:07:26;29.15;;;19.35;;
20318;SDS011;10317;47.254;11.314;2022-12-20T06:09:56;21.10;;;15.15;;
20318;SDS011;10317;47.254;11.314;2022-12-20T06:12:22;19.70;;;14.40;;
20318;SDS011;10317;47.254;11.314;2022-12-20T06:14:47;24.83;;;15.60;;
20318;SDS011;10317;47.254;11.314;2022-12-20T06:17:13;20.83;;;14.93;;
20318;SDS011;10317;47.254;11.314;2022-12-20T06:19:39;18.98;;;14.02;;
20318;SDS011;10317;47.254;11.314;2022-12-20T06:22:08;21.58;;;15.02;;
20318;SDS011;10317;47.254;11.314;2022-12-20T06:24:34;20.08;;;14.60;;
20318;SDS011;10317;47.254;11.314;2022-12-20T06:27:00;19.45;;;13.65;;
20318;SDS011;10317;47.254;11.314;2022-12-20T06:29:27;21.75;;;14.00;;
20318;SDS011;10317;47.254;11.314;2022-12-20T06:31:53;17.75;;;13.98;;
20318;SDS011;10317;47.254;11.314;2022-12-20T06:34:18;17.38;;;12.95;;
20318;SDS011;10317;47.254;11.314;2022-12-20T06:36:44;22.58;;;13.95;;
20318;SDS011;10317;47.254;11.314;2022-12-20T06:39:10;20.27;;;13.52;;
20318;SDS011;10317;47.254;11.314;2022-12-20T06:41:37;19.60;;;13.80;;
20318;SDS011;10317;47.254;11.314;2022-12-20T06:44:04;19.90;;;12.80;;
20318;SDS011;10317;47.254;11.314;2022-12-20T06:46:30;20.88;;;14.40;;
20318;SDS011;10317;47.254;11.314;2022-12-20T06:48:55;23.45;;;14.85;;
20318;SDS011;10317;47.254;11.314;2022-12-20T06:51:21;24.05;;;16.23;;
20318;SDS011;10317;47.254;11.314;2022-12-20T06:53:47;26.88;;;16.48;;
20318;SDS011;10317;47.254;11.314;2022-12-20T06:56:12;20.75;;;14.45;;
20318;SDS011;10317;47.254;11.314;2022-12-20T06:58:38;26.13;;;15.63;;
20318;SDS011;10317;47.254;11.314;2022-12-20T07:01:04;23.75;;;14.88;;
20318;SDS011;10317;47.254;11.314;2022-12-20T07:03:30;26.10;;;14.73;;
20318;SDS011;10317;47.254;11.314;2022-12-20T07:05:55;23.98;;;15.40;;
20318;SDS011;10317;47.254;11.314;2022-12-20T07:08:21;20.60;;;14.02;;
20318;SDS011;10317;47.254;11.314;2022-12-20T07:10:48;22.60;;;14.68;;
20318;SDS011;10317;47.254;11.314;2022-12-20T07:13:16;34.30;;;18.88;;
20318;SDS011;10317;47.254;11.314;2022-12-20T07:15:42;26.20;;;16.73;;
20318;SDS011;10317;47.254;11.314;2022-12-20T07:18:08;23.80;;;15.35;;
20318;SDS011;10317;47.254;11.314;2022-12-20T07:20:34;19.98;;;13.85;;
20318;SDS011;10317;47.254;11.314;2022-12-20T07:23:00;23.45;;;13.75;;
20318;SDS011;10317;47.254;11.314;2022-12-20T07:25:25;26.60;;;14.73;;
20318;SDS011;10317;47.254;11.314;2022-12-20T07:27:51;20.63;;;14.75;;
20318;SDS011;10317;47.254;11.314;2022-12-20T07:30:17;22.25;;;13.77;;
20318;SDS011;10317;47.254;11.314;2022-12-20T07:32:44;19.77;;;14.02;;
20318;SDS011;10317;47.254;11.314;2022-12-20T07:35:10;27.33;;;14.55;;
20318;SDS011;10317;47.254;11.314;2022-12-20T07:37:37;22.45;;;15.70;;
20318;SDS011;10317;47.254;11.314;2022-12-20T07:40:03;21.50;;;15.20;;
20318;SDS011;10317;47.254;11.314;2022-12-20T07:42:29;21.63;;;14.55;;
20318;SDS011;10317;47.254;11.314;2022-12-20T07:44:55;22.75;;;15.07;;
20318;SDS011;10317;47.254;11.314;2022-12-20T07:47:21;23.52;;;15.15;;
20318;SDS011;10317;47.254;11.314;2022-12-20T07:49:47;20.73;;;14.90;;
20318;SDS011;10317;47.254;11.314;2022-12-20T07:52:16;23.30;;;13.77;;
20318;SDS011;10317;47.254;11.314;2022-12-20T07:54:46;21.40;;;14.70;;
20318;SDS011;10317;47.254;11.314;2022-12-20T07:57:19;22.65;;;14.73;;
20318;SDS011;10317;47.254;11.314;2022-12-20T07:59:50;22.17;;;15.10;;
20318;SDS011;10317;47.254;11.314;2022-12-20T08:02:22;21.88;;;14.45;;
20318;SDS011;10317;47.254;11.314;2022-12-20T08:05:01;21.15;;;15.23;;
20318;SDS011;10317;47.254;11.314;2022-12-20T08:07:29;25.48;;;15.30;;
20318;SDS011;10317;47.254;11.314;2022-12-20T08:09:55;23.77;;;16.05;;
20318;SDS011;10317;47.254;11.314;2022-12-20T08:12:21;22.17;;;14.80;;
20318;SDS011;10317;47.254;11.314;2022-12-20T08:14:50;22.98;;;14.48;;
20318;SDS011;10317;47.254;11.314;2022-12-20T08:17:20;22.65;;;14.18;;
20318;SDS011;10317;47.254;11.314;2022-12-20T08:19:46;24.42;;;15.10;;
20318;SDS011;10317;47.254;11.314;2022-12-20T08:22:14;26.65;;;17.65;;
20318;SDS011;10317;47.254;11.314;2022-12-20T08:24:40;25.13;;;16.27;;
20318;SDS011;10317;47.254;11.314;2022-12-20T08:27:06;23.42;;;15.60;;
20318;SDS011;10317;47.254;11.314;2022-12-20T08:29:32;23.70;;;16.05;;
20318;SDS011;10317;47.254;11.314;2022-12-20T08:31:58;22.92;;;16.17;;
20318;SDS011;10317;47.254;11.314;2022-12-20T08:34:23;25.38;;;16.23;;
20318;SDS011;10317;47.254;11.314;2022-12-20T08:36:49;27.75;;;18.05;;
20318;SDS011;10317;47.254;11.314;2022-12-20T08:39:14;23.48;;;15.80;;
20318;SDS011;10317;47.254;11.314;2022-12-20T08:41:40;25.58;;;17.10;;
20318;SDS011;10317;47.254;11.314;2022-12-20T08:44:06;22.00;;;14.77;;
20318;SDS011;10317;47.254;11.314;2022-12-20T08:46:32;22.63;;;15.60;;
20318;SDS011;10317;47.254;11.314;2022-12-20T08:48:58;27.65;;;18.02;;
20318;SDS011;10317;47.254;11.314;2022-12-20T08:51:23;26.23;;;17.13;;
20318;SDS011;10317;47.254;11.314;2022-12-20T08:53:49;24.73;;;17.00;;
20318;SDS011;10317;47.254;11.314;2022-12-20T08:56:16;24.65;;;16.30;;
20318;SDS011;10317;47.254;11.314;2022-12-20T08:58:43;20.05;;;14.57;;
20318;SDS011;10317;47.254;11.314;2022-12-20T09:01:10;29.40;;;20.60;;
20318;SDS011;10317;47.254;11.314;2022-12-20T09:03:38;26.85;;;17.75;;
20318;SDS011;10317;47.254;11.314;2022-12-20T09:06:05;25.00;;;17.08;;
20318;SDS011;10317;47.254;11.314;2022-12-20T09:08:33;30.67;;;20.83;;
20318;SDS011;10317;47.254;11.314;2022-12-20T09:11:03;29.20;;;19.23;;
20318;SDS011;10317;47.254;11.314;2022-12-20T09:13:30;32.22;;;20.55;;
20318;SDS011;10317;47.254;11.314;2022-12-20T09:15:55;31.00;;;19.55;;
20318;SDS011;10317;47.254;11.314;2022-12-20T09:18:24;34.53;;;22.10;;
20318;SDS011;10317;47.254;11.314;2022-12-20T09:20:50;26.15;;;17.67;;
20318;SDS011;10317;47.254;11.314;2022-12-20T09:23:16;27.65;;;17.13;;
20318;SDS011;10317;47.254;11.314;2022-12-20T09:25:42;19.38;;;14.93;;
20318;SDS011;10317;47.254;11.314;2022-12-20T09:28:07;22.95;;;16.55;;
20318;SDS011;10317;47.254;11.314;2022-12-20T09:30:33;23.58;;;16.70;;
20318;SDS011;10317;47.254;11.314;2022-12-20T09:32:59;25.17;;;17.75;;
20318;SDS011;10317;47.254;11.314;2022-12-20T09:35:24;20.33;;;16.17;;
20318;SDS011;10317;47.254;11.314;2022-12-20T09:37:50;27.83;;;17.60;;
20318;SDS011;10317;47.254;11.314;2022-12-20T09:40:20;23.00;;;17.15;;
20318;SDS011;10317;47.254;11.314;2022-12-20T09:42:54;27.48;;;17.98;;
20318;SDS011;10317;47.254;11.314;2022-12-20T09:45:25;23.48;;;17.20;;
20318;SDS011;10317;47.254;11.314;2022-12-20T09:47:53;21.95;;;16.85;;
20318;SDS011;10317;47.254;11.314;2022-12-20T09:50:20;23.90;;;17.33;;
20318;SDS011;10317;47.254;11.314;2022-12-20T09:55:46;22.85;;;17.05;;
20318;SDS011;10317;47.254;11.314;2022-12-20T10:01:23;22.70;;;16.85;;
20318;SDS011;10317;47.254;11.314;2022-12-20T10:03:52;25.30;;;17.75;;
20318;SDS011;10317;47.254;11.314;2022-12-20T10:06:25;21.88;;;15.93;;
20318;SDS011;10317;47.254;11.314;2022-12-20T10:08:58;23.05;;;17.60;;
20318;SDS011;10317;47.254;11.314;2022-12-20T10:17:24;26.20;;;19.38;;
20318;SDS011;10317;47.254;11.314;2022-12-20T10:22:36;24.30;;;17.52;;
20318;SDS011;10317;47.254;11.314;2022-12-20T10:27:44;22.83;;;16.95;;
20318;SDS011;10317;47.254;11.314;2022-12-20T10:30:15;24.02;;;17.42;;
20318;SDS011;10317;47.254;11.314;2022-12-20T10:32:47;27.92;;;17.67;;
20318;SDS011;10317;47.254;11.314;2022-12-20T10:35:35;24.73;;;16.73;;
20318;SDS011;10317;47.254;11.314;2022-12-20T10:41:19;23.67;;;17.13;;
20318;SDS011;10317;47.254;11.314;2022-12-20T10:43:22;24.77;;;16.45;;
20318;SDS011;10317;47.254;11.314;2022-12-20T10:46:03;22.40;;;17.98;;
20318;SDS011;10317;47.254;11.314;2022-12-20T10:48:35;23.13;;;16.13;;
20318;SDS011;10317;47.254;11.314;2022-12-20T10:51:13;24.58;;;17.25;;
20318;SDS011;10317;47.254;11.314;2022-12-20T10:53:52;28.02;;;17.45;;
20318;SDS011;10317;47.254;11.314;2022-12-20T10:58:57;24.23;;;18.55;;
20318;SDS011;10317;47.254;11.314;2022-12-20T11:01:42;23.52;;;16.85;;
20318;SDS011;10317;47.254;11.314;2022-12-20T11:06:51;24.45;;;17.00;;
20318;SDS011;10317;47.254;11.314;2022-12-20T11:12:37;24.73;;;17.40;;
20318;SDS011;10317;47.254;11.314;2022-12-20T11:15:24;19.13;;;15.70;;
20318;SDS011;10317;47.254;11.314;2022-12-20T11:18:39;22.85;;;16.70;;
20318;SDS011;10317;47.254;11.314;2022-12-20T11:27:18;21.05;;;17.17;;
20318;SDS011;10317;47.254;11.314;2022-12-20T11:35:29;19.08;;;15.23;;
20318;SDS011;10317;47.254;11.314;2022-12-20T11:40:53;25.25;;;16.63;;
20318;SDS011;10317;47.254;11.314;2022-12-20T11:43:51;23.05;;;16.65;;
20318;SDS011;10317;47.254;11.314;2022-12-20T11:52:36;23.63;;;17.65;;
20318;SDS011;10317;47.254;11.314;2022-12-20T11:55:17;23.00;;;16.45;;
20318;SDS011;10317;47.254;11.314;2022-12-20T12:00:24;23.25;;;16.30;;
20318;SDS011;10317;47.254;11.314;2022-12-20T12:05:43;22.63;;;16.58;;
20318;SDS011;10317;47.254;11.314;2022-12-20T12:08:17;19.48;;;14.75;;
20318;SDS011;10317;47.254;11.314;2022-12-20T12:11:30;23.48;;;15.13;;
20318;SDS011;10317;47.254;11.314;2022-12-20T12:13:39;24.45;;;16.05;;
20318;SDS011;10317;47.254;11.314;2022-12-20T12:18:42;20.25;;;14.85;;
20318;SDS011;10317;47.254;11.314;2022-12-20T12:21:25;21.40;;;16.00;;
20318;SDS011;10317;47.254;11.314;2022-12-20T12:31:29;18.38;;;13.02;;
20318;SDS011;10317;47.254;11.314;2022-12-20T12:34:27;18.02;;;14.23;;
20318;SDS011;10317;47.254;11.314;2022-12-20T12:37:15;18.58;;;15.52;;
20318;SDS011;10317;47.254;11.314;2022-12-20T12:39:51;19.13;;;14.32;;
20318;SDS011;10317;47.254;11.314;2022-12-20T12:43:07;18.92;;;12.43;;
20318;SDS011;10317;47.254;11.314;2022-12-20T12:45:57;16.27;;;12.75;;
20318;SDS011;10317;47.254;11.314;2022-12-20T12:51:13;15.90;;;12.95;;
20318;SDS011;10317;47.254;11.314;2022-12-20T12:53:49;14.82;;;12.68;;
20318;SDS011;10317;47.254;11.314;2022-12-20T13:01:49;19.10;;;14.95;;
20318;SDS011;10317;47.254;11.314;2022-12-20T13:04:30;15.65;;;13.60;;
20318;SDS011;10317;47.254;11.314;2022-12-20T13:07:41;18.08;;;13.77;;
20318;SDS011;10317;47.254;11.314;2022-12-20T13:16:05;18.23;;;14.20;;
20318;SDS011;10317;47.254;11.314;2022-12-20T13:17:59;18.95;;;13.32;;
20318;SDS011;10317;47.254;11.314;2022-12-20T13:20:41;18.33;;;13.35;;
20318;SDS011;10317;47.254;11.314;2022-12-20T13:25:33;16.02;;;12.93;;
20318;SDS011;10317;47.254;11.314;2022-12-20T13:41:11;14.43;;;11.45;;
20318;SDS011;10317;47.254;11.314;2022-12-20T13:43:49;15.05;;;11.10;;
20318;SDS011;10317;47.254;11.314;2022-12-20T13:46:25;12.98;;;9.77;;
20318;SDS011;10317;47.254;11.314;2022-12-20T13:49:02;13.65;;;10.68;;
20318;SDS011;10317;47.254;11.314;2022-12-20T13:51:29;12.77;;;9.48;;
20318;SDS011;10317;47.254;11.314;2022-12-20T13:54:02;10.90;;;8.55;;
20318;SDS011;10317;47.254;11.314;2022-12-20T13:56:32;11.90;;;9.30;;
20318;SDS011;10317;47.254;11.314;2022-12-20T13:59:26;12.60;;;9.77;;
20318;SDS011;10317;47.254;11.314;2022-12-20T14:01:58;12.48;;;9.10;;
20318;SDS011;10317;47.254;11.314;2022-12-20T14:04:26;10.20;;;8.27;;
20318;SDS011;10317;47.254;11.314;2022-12-20T14:07:03;12.15;;;8.45;;
20318;SDS011;10317;47.254;11.314;2022-12-20T14:12:04;12.35;;;9.23;;
20318;SDS011;10317;47.254;11.314;2022-12-20T14:14:36;9.93;;;7.78;;
20318;SDS011;10317;47.254;11.314;2022-12-20T14:22:38;8.90;;;7.55;;
20318;SDS011;10317;47.254;11.314;2022-12-20T14:25:34;10.32;;;8.23;;
20318;SDS011;10317;47.254;11.314;2022-12-20T14:28:04;9.98;;;8.30;;
20318;SDS011;10317;47.254;11.314;2022-12-20T14:30:41;8.70;;;7.65;;
20318;SDS011;10317;47.254;11.314;2022-12-20T14:33:42;9.15;;;7.18;;
20318;SDS011;10317;47.254;11.314;2022-12-20T14:36:20;11.68;;;7.97;;
20318;SDS011;10317;47.254;11.314;2022-12-20T14:38:50;10.32;;;7.93;;
20318;SDS011;10317;47.254;11.314;2022-12-20T14:43:58;10.20;;;7.43;;
20318;SDS011;10317;47.254;11.314;2022-12-20T14:46:28;9.27;;;8.13;;
20318;SDS011;10317;47.254;11.314;2022-12-20T14:51:48;8.48;;;6.95;;
20318;SDS011;10317;47.254;11.314;2022-12-20T14:54:22;9.00;;;6.85;;
20318;SDS011;10317;47.254;11.314;2022-12-20T14:56:51;10.68;;;7.50;;
20318;SDS011;10317;47.254;11.314;2022-12-20T14:59:21;10.45;;;6.88;;
20318;SDS011;10317;47.254;11.314;2022-12-20T15:01:52;10.15;;;7.43;;
20318;SDS011;10317;47.254;11.314;2022-12-20T15:04:20;7.78;;;6.78;;
20318;SDS011;10317;47.254;11.314;2022-12-20T15:06:46;7.82;;;7.05;;
20318;SDS011;10317;47.254;11.314;2022-12-20T15:09:13;11.25;;;7.43;;
20318;SDS011;10317;47.254;11.314;2022-12-20T15:11:40;8.20;;;7.22;;
20318;SDS011;10317;47.254;11.314;2022-12-20T15:14:21;10.43;;;8.00;;
20318;SDS011;10317;47.254;11.314;2022-12-20T15:17:01;11.88;;;8.73;;
20318;SDS011;10317;47.254;11.314;2022-12-20T15:19:28;13.57;;;8.73;;
20318;SDS011;10317;47.254;11.314;2022-12-20T15:21:56;13.00;;;9.48;;
20318;SDS011;10317;47.254;11.314;2022-12-20T15:24:25;11.88;;;8.80;;
20318;SDS011;10317;47.254;11.314;2022-12-20T15:26:52;9.73;;;8.02;;
20318;SDS011;10317;47.254;11.314;2022-12-20T15:29:20;12.57;;;8.98;;
20318;SDS011;10317;47.254;11.314;2022-12-20T15:31:48;13.35;;;9.48;;
20318;SDS011;10317;47.254;11.314;2022-12-20T15:34:29;9.68;;;8.68;;
20318;SDS011;10317;47.254;11.314;2022-12-20T15:37:00;11.60;;;8.45;;
20318;SDS011;10317;47.254;11.314;2022-12-20T15:39:27;10.35;;;8.57;;
20318;SDS011;10317;47.254;11.314;2022-12-20T15:41:53;11.80;;;9.02;;
20318;SDS011;10317;47.254;11.314;2022-12-20T15:44:23;13.48;;;9.60;;
20318;SDS011;10317;47.254;11.314;2022-12-20T15:46:52;11.32;;;8.48;;
20318;SDS011;10317;47.254;11.314;2022-12-20T15:49:19;11.80;;;9.00;;
20318;SDS011;10317;47.254;11.314;2022-12-20T15:51:47;9.38;;;7.97;;
20318;SDS011;10317;47.254;11.314;2022-12-20T15:56:45;20.65;;;12.18;;
20318;SDS011;10317;47.254;11.314;2022-12-20T15:59:11;15.48;;;11.40;;
20318;SDS011;10317;47.254;11.314;2022-12-20T16:01:37;19.35;;;12.88;;
20318;SDS011;10317;47.254;11.314;2022-12-20T16:04:04;12.88;;;8.65;;
20318;SDS011;10317;47.254;11.314;2022-12-20T16:06:31;10.73;;;8.70;;
20318;SDS011;10317;47.254;11.314;2022-12-20T16:08:57;12.55;;;8.80;;
20318;SDS011;10317;47.254;11.314;2022-12-20T16:11:36;11.75;;;8.60;;
20318;SDS011;10317;47.254;11.314;2022-12-20T16:14:17;11.98;;;8.10;;
20318;SDS011;10317;47.254;11.314;2022-12-20T16:16:45;8.50;;;7.50;;
20318;SDS011;10317;47.254;11.314;2022-12-20T16:19:13;12.38;;;10.10;;
20318;SDS011;10317;47.254;11.314;2022-12-20T16:21:47;14.95;;;10.77;;
20318;SDS011;10317;47.254;11.314;2022-12-20T16:24:15;13.50;;;8.90;;
20318;SDS011;10317;47.254;11.314;2022-12-20T16:26:43;16.92;;;12.07;;
20318;SDS011;10317;47.254;11.314;2022-12-20T16:29:09;10.57;;;9.35;;
20318;SDS011;10317;47.254;11.314;2022-12-20T16:31:36;11.45;;;8.98;;
20318;SDS011;10317;47.254;11.314;2022-12-20T16:34:13;14.85;;;10.38;;
20318;SDS011;10317;47.254;11.314;2022-12-20T16:36:40;11.45;;;9.10;;